createdAt,value
2022-12-04T00:01:23.493Z,102216.66
2022-12-04T00:03:58.940Z,102222.72
2022-12-04T00:06:26.318Z,102227.19
2022-12-04T00:08:53.819Z,102232.50
2022-12-04T00:11:23.941Z,102220.53
2022-12-04T00:13:51.277Z,102226.69
2022-12-04T00:16:21.609Z,102231.91
2022-12-04T00:18:48.757Z,102214.53
2022-12-04T00:21:17.285Z,102233.72
2022-12-04T00:23:44.468Z,102229.47
2022-12-04T00:26:23.336Z,102234.78
2022-12-04T00:28:50.831Z,102226.94
2022-12-04T00:31:20.876Z,102214.81
2022-12-04T00:33:48.166Z,102222.59
2022-12-04T00:36:17.672Z,102217.53
2022-12-04T00:38:45.067Z,102228.03
2022-12-04T00:41:14.594Z,102222.81
2022-12-04T00:43:42.431Z,102215.91
2022-12-04T00:46:09.556Z,102202.19
2022-12-04T00:48:36.595Z,102214.41
2022-12-04T00:51:09.380Z,102215.38
2022-12-04T00:53:36.434Z,102231.06
2022-12-04T00:56:08.616Z,102231.97
2022-12-04T00:58:35.841Z,102231.97
2022-12-04T01:01:05.985Z,102222.38
2022-12-04T01:03:33.984Z,102212.13
2022-12-04T01:06:02.470Z,102220.84
2022-12-04T01:08:29.632Z,102218.34
2022-12-04T01:10:56.950Z,102218.34
2022-12-04T01:13:24.868Z,102218.34
2022-12-04T01:15:52.954Z,102230.63
2022-12-04T01:18:19.964Z,102233.16
2022-12-04T01:20:51.315Z,102240.09
2022-12-04T01:23:19.332Z,102233.19
2022-12-04T01:28:26.207Z,102231.41
2022-12-04T01:31:05.969Z,102235.78
2022-12-04T01:33:34.409Z,102233.25
2022-12-04T01:36:02.461Z,102234.09
2022-12-04T01:38:29.745Z,102242.84
2022-12-04T01:40:57.424Z,102242.91
2022-12-04T01:43:26.408Z,102249.06
2022-12-04T01:45:57.846Z,102244.63
2022-12-04T01:48:31.014Z,102255.03
2022-12-04T01:53:35.966Z,102251.59
2022-12-04T01:56:03.368Z,102250.75
2022-12-04T01:58:33.608Z,102248.16
2022-12-04T02:01:08.271Z,102250.88
2022-12-04T02:03:36.403Z,102257.91
2022-12-04T02:06:03.409Z,102245.78
2022-12-04T02:08:30.851Z,102241.50
2022-12-04T02:11:13.653Z,102249.34
2022-12-04T02:14:27.748Z,102246.72
2022-12-04T02:17:34.196Z,102251.22
2022-12-04T02:20:25.834Z,102246.00
2022-12-04T02:23:08.137Z,102246.97
2022-12-04T02:26:07.694Z,102241.81
2022-12-04T02:29:19.592Z,102248.78
2022-12-04T02:32:03.874Z,102254.91
2022-12-04T02:34:59.109Z,102257.53
2022-12-04T02:37:47.831Z,102248.97
2022-12-04T02:40:28.614Z,102245.47
2022-12-04T02:43:24.671Z,102247.22
2022-12-04T02:46:04.516Z,102249.91
2022-12-04T02:48:32.838Z,102250.75
2022-12-04T02:51:02.399Z,102250.69
2022-12-04T02:53:35.962Z,102255.97
2022-12-04T02:56:08.207Z,102254.19
2022-12-04T02:58:41.251Z,102254.31
2022-12-04T03:01:21.232Z,102255.22
2022-12-04T03:04:03.152Z,102265.66
2022-12-04T03:06:33.833Z,102263.13
2022-12-04T03:09:11.251Z,102270.94
2022-12-04T03:11:39.320Z,102270.97
2022-12-04T03:14:29.026Z,102283.22
2022-12-04T03:17:02.041Z,102281.53
2022-12-04T03:19:42.229Z,102266.84
2022-12-04T03:22:14.210Z,102271.19
2022-12-04T03:24:45.578Z,102275.56
2022-12-04T03:27:15.363Z,102269.59
2022-12-04T03:29:46.819Z,102260.94
2022-12-04T03:32:40.074Z,102266.19
2022-12-04T03:35:47.849Z,102280.13
2022-12-04T03:38:40.896Z,102279.28
2022-12-04T03:41:27.367Z,102278.47
2022-12-04T03:44:25.330Z,102275.91
2022-12-04T03:47:15.250Z,102275.13
2022-12-04T03:49:58.667Z,102278.59
2022-12-04T03:52:52.468Z,102276.81
2022-12-04T03:55:27.592Z,102277.72
2022-12-04T03:57:59.656Z,102279.47
2022-12-04T04:00:26.740Z,102286.44
2022-12-04T04:02:58.574Z,102281.25
2022-12-04T04:05:27.557Z,102283.03
2022-12-04T04:08:21.839Z,102285.59
2022-12-04T04:10:49.945Z,102276.97
2022-12-04T04:13:42.619Z,102283.03
2022-12-04T04:16:30.795Z,102293.44
2022-12-04T04:19:17.311Z,102287.41
2022-12-04T04:22:03.254Z,102288.34
2022-12-04T04:24:30.133Z,102297.84
2022-12-04T04:26:58.510Z,102283.97
2022-12-04T04:29:26.233Z,102293.56
2022-12-04T04:32:11.809Z,102298.75
2022-12-04T04:34:54.982Z,102295.25
2022-12-04T04:37:43.230Z,102296.16
2022-12-04T04:40:27.791Z,102296.19
2022-12-04T04:43:03.491Z,102302.25
2022-12-04T04:45:45.059Z,102300.53
2022-12-04T04:48:31.981Z,102305.72
2022-12-04T04:51:00.496Z,102305.72
2022-12-04T04:53:31.189Z,102309.25
2022-12-04T04:55:59.031Z,102307.53
2022-12-04T04:58:26.053Z,102310.09
2022-12-04T05:01:11.706Z,102305.78
2022-12-04T05:03:38.908Z,102308.44
2022-12-04T05:06:06.752Z,102318.00
2022-12-04T05:08:34.361Z,102317.19
2022-12-04T05:11:01.831Z,102312.88
2022-12-04T05:13:30.288Z,102308.53
2022-12-04T05:16:03.002Z,102312.88
2022-12-04T05:18:30.560Z,102318.97
2022-12-04T05:20:57.619Z,102311.19
2022-12-04T05:23:25.196Z,102310.31
2022-12-04T05:26:00.165Z,102314.63
2022-12-04T05:28:30.520Z,102317.25
2022-12-04T05:31:03.200Z,102314.59
2022-12-04T05:33:30.892Z,102329.31
2022-12-04T05:36:01.646Z,102325.00
2022-12-04T05:38:29.238Z,102331.88
2022-12-04T05:40:58.742Z,102312.88
2022-12-04T05:43:25.774Z,102325.84
2022-12-04T05:45:52.865Z,102330.13
2022-12-04T05:48:20.090Z,102340.50
2022-12-04T05:50:48.192Z,102334.38
2022-12-04T05:53:15.339Z,102335.25
2022-12-04T05:55:42.762Z,102340.38
2022-12-04T05:58:09.730Z,102329.94
2022-12-04T06:00:36.960Z,102334.25
2022-12-04T06:03:03.983Z,102338.53
2022-12-04T06:05:32.882Z,102335.88
2022-12-04T06:08:00.033Z,102335.81
2022-12-04T06:10:27.297Z,102342.69
2022-12-04T06:12:57.869Z,102342.63
2022-12-04T06:15:25.469Z,102341.75
2022-12-04T06:17:52.819Z,102342.53
2022-12-04T06:20:21.008Z,102345.16
2022-12-04T06:22:48.142Z,102346.78
2022-12-04T06:25:15.147Z,102350.16
2022-12-04T06:27:43.993Z,102350.97
2022-12-04T06:30:20.906Z,102341.47
2022-12-04T06:33:37.900Z,102355.34
2022-12-04T06:36:13.422Z,102355.38
2022-12-04T06:38:41.504Z,102356.28
2022-12-04T06:41:13.626Z,102355.38
2022-12-04T06:43:43.291Z,102351.06
2022-12-04T06:46:21.318Z,102342.44
2022-12-04T06:48:49.628Z,102351.97
2022-12-04T06:51:19.609Z,102348.47
2022-12-04T06:53:46.782Z,102348.41
2022-12-04T06:56:18.566Z,102360.41
2022-12-04T06:58:46.816Z,102351.56
2022-12-04T07:01:17.671Z,102360.00
2022-12-04T07:03:51.009Z,102344.97
2022-12-04T07:06:22.779Z,102354.06
2022-12-04T07:08:52.338Z,102359.09
2022-12-04T07:11:20.444Z,102359.06
2022-12-04T07:13:48.624Z,102359.66
2022-12-04T07:16:20.715Z,102359.59
2022-12-04T07:18:50.560Z,102371.56
2022-12-04T07:21:19.021Z,102367.72
2022-12-04T07:23:50.075Z,102370.00
2022-12-04T07:26:17.480Z,102370.59
2022-12-04T07:28:47.218Z,102369.50
2022-12-04T07:31:17.238Z,102356.13
2022-12-04T07:33:46.059Z,102362.75
2022-12-04T07:36:15.722Z,102376.31
2022-12-04T07:38:44.303Z,102377.34
2022-12-04T07:41:12.596Z,102380.25
2022-12-04T07:43:39.913Z,102377.50
2022-12-04T07:46:13.187Z,102380.31
2022-12-04T07:48:41.671Z,102384.03
2022-12-04T07:51:11.536Z,102381.72
2022-12-04T07:53:40.398Z,102393.75
2022-12-04T07:56:08.459Z,102386.41
2022-12-04T07:58:35.583Z,102393.38
2022-12-04T08:01:14.621Z,102380.94
2022-12-04T08:03:49.035Z,102380.91
2022-12-04T08:06:21.888Z,102374.63
2022-12-04T08:08:49.243Z,102376.66
2022-12-04T08:11:19.115Z,102373.41
2022-12-04T08:13:46.388Z,102363.91
2022-12-04T08:16:13.826Z,102374.16
2022-12-04T08:18:42.917Z,102368.31
2022-12-04T08:21:12.441Z,102366.97
2022-12-04T08:23:40.947Z,102371.94
2022-12-04T08:26:08.980Z,102373.66
2022-12-04T08:28:36.416Z,102382.47
2022-12-04T08:31:05.236Z,102375.56
2022-12-04T08:33:32.929Z,102374.75
2022-12-04T08:36:00.211Z,102371.16
2022-12-04T08:38:27.276Z,102366.69
2022-12-04T08:40:54.223Z,102369.47
2022-12-04T08:43:21.639Z,102374.75
2022-12-04T08:46:02.503Z,102375.19
2022-12-04T08:48:30.363Z,102378.31
2022-12-04T08:50:59.426Z,102368.16
2022-12-04T08:56:15.020Z,102371.00
2022-12-04T08:58:42.258Z,102354.22
2022-12-04T09:01:13.323Z,102366.78
2022-12-04T09:03:41.111Z,102351.09
2022-12-04T09:06:09.612Z,102356.91
2022-12-04T09:08:37.931Z,102360.03
2022-12-04T09:11:11.533Z,102355.75
2022-12-04T09:13:39.161Z,102343.38
2022-12-04T09:16:08.954Z,102357.94
2022-12-04T09:18:37.051Z,102356.53
2022-12-04T09:21:06.890Z,102344.00
2022-12-04T09:23:35.004Z,102349.75
2022-12-04T09:26:02.361Z,102359.34
2022-12-04T09:28:29.702Z,102340.66
2022-12-04T09:31:02.159Z,102345.03
2022-12-04T09:33:35.675Z,102349.28
2022-12-04T09:36:04.049Z,102346.97
2022-12-04T09:38:35.438Z,102344.44
2022-12-04T09:41:25.432Z,102353.00
2022-12-04T09:44:09.073Z,102353.91
2022-12-04T09:46:42.626Z,102352.25
2022-12-04T09:49:59.389Z,102344.22
2022-12-04T09:52:35.158Z,102351.06
2022-12-04T09:55:05.349Z,102345.97
2022-12-04T09:57:39.144Z,102349.22
2022-12-04T10:00:07.640Z,102342.16
2022-12-04T10:02:39.912Z,102338.03
2022-12-04T10:05:14.647Z,102335.84
2022-12-04T10:07:49.238Z,102332.16
2022-12-04T10:10:36.160Z,102332.66
2022-12-04T10:13:26.129Z,102335.72
2022-12-04T10:16:15.369Z,102334.03
2022-12-04T10:19:36.827Z,102342.25
2022-12-04T10:22:18.390Z,102342.84
2022-12-04T10:24:50.203Z,102335.06
2022-12-04T10:27:41.497Z,102332.00
2022-12-04T10:30:17.655Z,102323.94
2022-12-04T10:32:45.999Z,102321.50
2022-12-04T10:35:29.594Z,102328.09
2022-12-04T10:38:04.260Z,102328.44
2022-12-04T10:40:51.520Z,102325.22
2022-12-04T10:43:43.198Z,102319.03
2022-12-04T10:46:14.641Z,102312.00
2022-12-04T10:48:42.411Z,102320.16
2022-12-04T10:51:21.526Z,102309.88
2022-12-04T10:53:49.901Z,102309.59
2022-12-04T10:56:20.164Z,102302.25
2022-12-04T10:59:04.781Z,102322.69
2022-12-04T11:01:34.290Z,102310.06
2022-12-04T11:04:12.259Z,102314.13
2022-12-04T11:06:39.895Z,102312.91
2022-12-04T11:09:06.899Z,102305.06
2022-12-04T11:11:35.342Z,102305.94
2022-12-04T11:14:12.587Z,102307.34
2022-12-04T11:16:44.834Z,102317.34
2022-12-04T11:19:20.169Z,102303.06
2022-12-04T11:21:47.679Z,102310.09
2022-12-04T11:24:33.251Z,102310.09
2022-12-04T11:27:02.973Z,102304.88
2022-12-04T11:29:37.024Z,102309.22
2022-12-04T11:32:08.047Z,102313.69
2022-12-04T11:34:39.340Z,102305.88
2022-12-04T11:37:07.335Z,102310.00
2022-12-04T11:39:39.856Z,102311.03
2022-12-04T11:42:18.696Z,102299.88
2022-12-04T11:44:55.939Z,102297.94
2022-12-04T11:47:26.523Z,102302.53
2022-12-04T11:50:19.384Z,102304.25
2022-12-04T11:52:55.433Z,102295.00
2022-12-04T11:55:29.126Z,102293.44
2022-12-04T11:58:14.845Z,102291.41
2022-12-04T12:00:46.460Z,102293.97
2022-12-04T12:03:19.158Z,102287.81
2022-12-04T12:05:55.483Z,102284.97
2022-12-04T12:08:38.010Z,102283.31
2022-12-04T12:11:29.224Z,102282.53
2022-12-04T12:14:18.253Z,102287.25
2022-12-04T12:19:50.523Z,102283.47
2022-12-04T12:22:29.956Z,102288.47
2022-12-04T12:25:19.265Z,102292.44
2022-12-04T12:28:01.719Z,102286.09
2022-12-04T12:30:39.798Z,102281.72
2022-12-04T12:33:27.611Z,102286.16
2022-12-04T12:36:05.810Z,102296.59
2022-12-04T12:39:23.051Z,102290.81
2022-12-04T12:41:54.088Z,102282.09
2022-12-04T12:44:23.336Z,102301.63
2022-12-04T12:46:51.767Z,102297.19
2022-12-04T12:49:32.013Z,102306.13
2022-12-04T12:52:07.506Z,102297.44
2022-12-04T12:54:48.447Z,102290.72
2022-12-04T12:57:35.228Z,102299.59
2022-12-04T13:00:13.302Z,102300.16
2022-12-04T13:03:00.788Z,102311.06
2022-12-04T13:05:31.980Z,102296.69
2022-12-04T13:08:01.808Z,102297.75
2022-12-04T13:10:33.478Z,102297.75
2022-12-04T13:13:06.666Z,102315.31
2022-12-04T13:15:39.904Z,102299.75
2022-12-04T13:18:08.972Z,102279.28
2022-12-04T13:20:47.212Z,102292.22
2022-12-04T13:23:35.187Z,102293.19
2022-12-04T13:26:25.641Z,102287.31
2022-12-04T13:29:13.614Z,102302.31
2022-12-04T13:31:44.188Z,102295.50
2022-12-04T13:34:35.703Z,102297.38
2022-12-04T13:37:27.191Z,102289.03
2022-12-04T13:40:09.351Z,102303.56
2022-12-04T13:42:36.532Z,102299.53
2022-12-04T13:45:11.217Z,102302.88
2022-12-04T13:47:39.254Z,102302.13
2022-12-04T13:50:09.417Z,102305.69
2022-12-04T13:52:41.037Z,102304.91
2022-12-04T13:55:27.030Z,102310.16
2022-12-04T13:58:03.249Z,102299.75
2022-12-04T14:00:38.541Z,102302.41
2022-12-04T14:03:27.740Z,102301.47
2022-12-04T14:05:55.138Z,102306.00
2022-12-04T14:08:26.926Z,102288.69
2022-12-04T14:11:03.204Z,102302.63
2022-12-04T14:13:54.492Z,102301.94
2022-12-04T14:16:37.475Z,102299.59
2022-12-04T14:19:06.242Z,102298.59
2022-12-04T14:21:44.779Z,102294.34
2022-12-04T14:24:28.251Z,102297.88
2022-12-04T14:27:11.373Z,102292.00
2022-12-04T14:29:50.203Z,102295.44
2022-12-04T14:32:22.804Z,102301.69
2022-12-04T14:34:59.132Z,102274.19
2022-12-04T14:37:31.249Z,102300.94
2022-12-04T14:39:58.984Z,102301.91
2022-12-04T14:42:38.873Z,102292.47
2022-12-04T14:45:18.107Z,102302.00
2022-12-04T14:47:57.518Z,102296.84
2022-12-04T14:50:46.674Z,102298.69
2022-12-04T14:53:37.151Z,102297.78
2022-12-04T14:56:35.011Z,102307.44
2022-12-04T14:59:07.008Z,102304.00
2022-12-04T15:01:37.958Z,102296.31
2022-12-04T15:04:14.440Z,102299.81
2022-12-04T15:06:41.741Z,102302.28
2022-12-04T15:09:37.310Z,102308.44
2022-12-04T15:12:36.263Z,102302.50
2022-12-04T15:15:22.151Z,102296.50
2022-12-04T15:18:09.445Z,102312.22
2022-12-04T15:20:48.741Z,102290.66
2022-12-04T15:23:18.780Z,102294.97
2022-12-04T15:25:54.085Z,102294.97
2022-12-04T15:28:23.917Z,102300.19
2022-12-04T15:30:52.574Z,102295.03
2022-12-04T15:33:23.486Z,102288.25
2022-12-04T15:36:13.034Z,102295.16
2022-12-04T15:38:40.649Z,102292.47
2022-12-04T15:41:22.867Z,102287.28
2022-12-04T15:43:50.850Z,102291.72
2022-12-04T15:46:31.184Z,102303.06
2022-12-04T15:49:12.120Z,102291.97
2022-12-04T15:51:39.164Z,102302.41
2022-12-04T15:54:14.463Z,102284.41
2022-12-04T15:56:41.630Z,102280.19
2022-12-04T15:59:17.093Z,102294.88
2022-12-04T16:01:44.486Z,102289.78
2022-12-04T16:04:42.454Z,102315.69
2022-12-04T16:07:28.034Z,102302.75
2022-12-04T16:10:03.686Z,102306.28
2022-12-04T16:12:36.595Z,102312.41
2022-12-04T16:15:04.099Z,102310.72
2022-12-04T16:17:33.072Z,102304.56
2022-12-04T16:20:01.140Z,102307.25
2022-12-04T16:22:31.596Z,102298.63
2022-12-04T16:24:58.942Z,102297.78
2022-12-04T16:27:26.315Z,102308.16
2022-12-04T16:29:53.480Z,102286.56
2022-12-04T16:33:00.792Z,102296.13
2022-12-04T16:35:27.846Z,102294.50
2022-12-04T16:40:37.238Z,102272.22
2022-12-04T16:52:38.377Z,102267.97
2022-12-04T16:55:19.982Z,102287.81
2022-12-04T16:58:16.708Z,102293.19
2022-12-04T17:00:46.751Z,102287.94
2022-12-04T17:03:41.806Z,102291.38
2022-12-04T17:06:09.427Z,102289.78
2022-12-04T17:08:47.645Z,102294.91
2022-12-04T17:11:17.229Z,102289.75
2022-12-04T17:13:45.558Z,102269.09
2022-12-04T17:16:19.627Z,102298.47
2022-12-04T17:19:10.376Z,102296.81
2022-12-04T17:24:48.064Z,102282.19
2022-12-04T17:27:18.410Z,102283.06
2022-12-04T17:30:00.299Z,102282.28
2022-12-04T17:32:32.706Z,102273.59
2022-12-04T17:35:04.828Z,102278.03
2022-12-04T17:37:34.773Z,102282.31
2022-12-04T17:40:02.664Z,102291.84
2022-12-04T17:42:30.701Z,102285.03
2022-12-04T17:44:58.830Z,102279.81
2022-12-04T17:47:26.510Z,102291.06
2022-12-04T17:49:53.752Z,102265.28
2022-12-04T17:52:22.685Z,102279.94
2022-12-04T17:54:53.307Z,102283.31
2022-12-04T17:57:22.631Z,102278.16
2022-12-04T17:59:50.450Z,102285.91
2022-12-04T18:02:18.640Z,102282.47
2022-12-04T18:04:46.077Z,102277.31
2022-12-04T18:07:15.070Z,102264.38
2022-12-04T18:09:42.237Z,102241.94
2022-12-04T18:12:09.631Z,102262.63
2022-12-04T18:14:38.723Z,102265.28
2022-12-04T18:17:06.047Z,102264.44
2022-12-04T18:19:33.397Z,102267.91
2022-12-04T18:22:00.762Z,102258.41
2022-12-04T18:24:29.551Z,102262.75
2022-12-04T18:26:59.746Z,102268.00
2022-12-04T18:29:27.974Z,102261.13
2022-12-04T18:31:57.128Z,102267.16
2022-12-04T18:34:24.737Z,102260.28
2022-12-04T18:36:51.979Z,102273.28
2022-12-04T18:39:24.009Z,102268.13
2022-12-04T18:41:51.500Z,102269.88
2022-12-04T18:44:19.968Z,102263.81
2022-12-04T18:46:47.058Z,102258.69
2022-12-04T18:49:14.241Z,102250.88
2022-12-04T18:51:48.872Z,102256.06
2022-12-04T18:54:22.800Z,102261.28
2022-12-04T18:56:50.528Z,102261.28
2022-12-04T18:59:20.137Z,102257.88
2022-12-04T19:01:50.035Z,102254.44
2022-12-04T19:04:19.703Z,102253.53
2022-12-04T19:06:52.066Z,102251.81
2022-12-04T19:09:54.411Z,102261.38
2022-12-04T19:12:14.411Z,102253.56
2022-12-04T19:14:41.631Z,102250.16
2022-12-04T19:17:09.313Z,102244.91
2022-12-04T19:19:36.470Z,102257.91
2022-12-04T19:22:06.213Z,102240.59
2022-12-04T19:24:33.237Z,102238.84
2022-12-04T19:27:01.980Z,102235.38
2022-12-04T19:29:29.110Z,102246.63
2022-12-04T19:31:59.254Z,102244.91
2022-12-04T19:34:26.980Z,102239.75
2022-12-04T19:37:04.179Z,102224.16
2022-12-04T19:39:33.197Z,102237.16
2022-12-04T19:42:00.663Z,102245.78
2022-12-04T19:56:30.942Z,102219.00
2022-12-04T19:59:00.727Z,102219.88
2022-12-04T20:01:35.732Z,102234.59
2022-12-04T20:04:15.491Z,102225.09
2022-12-04T20:06:44.698Z,102226.81
2022-12-04T20:09:14.671Z,102213.75
2022-12-04T20:11:44.309Z,102225.91
2022-12-04T20:14:11.572Z,102226.75
2022-12-04T20:16:38.845Z,102214.72
2022-12-04T20:19:07.821Z,102213.81
2022-12-04T20:21:35.504Z,102210.34
2022-12-04T20:24:05.307Z,102214.69
2022-12-04T20:26:35.553Z,102221.56
2022-12-04T20:29:03.229Z,102225.03
2022-12-04T20:31:33.196Z,102217.28
2022-12-04T20:34:02.198Z,102222.47
2022-12-04T20:36:31.126Z,102227.72
2022-12-04T20:38:58.978Z,102220.78
2022-12-04T20:41:28.011Z,102232.91
2022-12-04T20:43:55.951Z,102221.75
2022-12-04T20:46:25.525Z,102231.28
2022-12-04T20:48:54.925Z,102225.16
2022-12-04T20:51:25.616Z,102225.16
2022-12-04T20:53:54.096Z,102222.56
2022-12-04T20:56:26.170Z,102221.69
2022-12-04T20:58:54.269Z,102223.41
2022-12-04T21:01:21.335Z,102219.13
2022-12-04T21:03:48.441Z,102221.69
2022-12-04T21:06:21.394Z,102212.16
2022-12-04T21:08:58.696Z,102217.41
2022-12-04T21:11:28.324Z,102223.41
2022-12-04T21:14:17.551Z,102222.56
2022-12-04T21:16:44.803Z,102222.63
2022-12-04T21:19:13.462Z,102216.59
2022-12-04T21:21:41.045Z,102220.09
2022-12-04T21:24:10.148Z,102219.25
2022-12-04T21:26:37.211Z,102202.88
2022-12-04T21:29:05.463Z,102203.69
2022-12-04T21:31:32.585Z,102225.28
2022-12-04T21:34:00.794Z,102208.84
2022-12-04T21:36:28.467Z,102208.88
2022-12-04T21:38:56.246Z,102209.78
2022-12-04T21:41:42.099Z,102199.38
2022-12-04T21:44:14.549Z,102194.22
2022-12-04T21:46:44.813Z,102190.78
2022-12-04T21:49:12.484Z,102188.16
2022-12-04T21:51:56.757Z,102181.25
2022-12-04T21:54:27.146Z,102189.09
2022-12-04T21:56:54.757Z,102183.94
2022-12-04T21:59:21.759Z,102186.56
2022-12-04T22:01:50.244Z,102171.88
2022-12-04T22:04:17.503Z,102172.69
2022-12-04T22:06:44.441Z,102167.50
2022-12-04T22:09:14.644Z,102172.72
2022-12-04T22:11:42.218Z,102166.66
2022-12-04T22:14:09.901Z,102171.84
2022-12-04T22:16:41.888Z,102170.16
2022-12-04T22:19:09.838Z,102164.94
2022-12-04T22:21:36.807Z,102167.59
2022-12-04T22:24:23.907Z,102164.13
2022-12-04T22:26:51.066Z,102165.03
2022-12-04T22:29:48.487Z,102155.53
2022-12-04T22:32:06.013Z,102156.38
2022-12-04T22:34:33.207Z,102143.41
2022-12-04T22:37:00.135Z,102148.63
2022-12-04T22:39:27.144Z,102151.19
2022-12-04T22:41:54.129Z,102145.13
2022-12-04T22:44:21.130Z,102139.13
2022-12-04T22:46:48.141Z,102148.66
2022-12-04T22:49:15.266Z,102144.31
2022-12-04T22:51:42.171Z,102152.94
2022-12-04T22:54:13.204Z,102148.66
2022-12-04T22:56:40.579Z,102144.31
2022-12-04T22:59:07.513Z,102140.81
2022-12-04T23:01:34.959Z,102143.44
2022-12-04T23:04:02.974Z,102135.66
2022-12-04T23:06:32.133Z,102135.66
2022-12-04T23:09:02.356Z,102133.91
2022-12-04T23:11:29.849Z,102138.25
2022-12-04T23:14:01.946Z,102137.44
2022-12-04T23:16:31.198Z,102140.88
2022-12-04T23:18:59.075Z,102141.78
2022-12-04T23:21:26.805Z,102140.03
2022-12-04T23:23:54.698Z,102146.94
2022-12-04T23:26:30.059Z,102140.91
2022-12-04T23:28:58.531Z,102147.81
2022-12-04T23:31:25.791Z,102144.41
2022-12-04T23:33:52.874Z,102139.22
2022-12-04T23:36:20.181Z,102140.09
2022-12-04T23:38:49.687Z,102135.72
2022-12-04T23:41:20.874Z,102125.34
2022-12-04T23:43:49.229Z,102131.38
2022-12-04T23:46:19.923Z,102122.75
2022-12-04T23:48:47.611Z,102117.56
2022-12-04T23:51:17.407Z,102115.81
2022-12-04T23:53:45.266Z,102111.47
2022-12-04T23:56:24.326Z,102112.34
2022-12-04T23:58:53.093Z,102107.16
